sensor_id;sensor_type;location;lat;lon;timestamp;pressure;altitude;pressure_sealevel;temperature;humidity
28004;BME280;15330;51.234;6.754;2023-04-01T00:01:20;98873.22;;;9.80;100.00
28004;BME280;15330;51.234;6.754;2023-04-01T00:03:45;98875.47;;;9.76;100.00
28004;BME280;15330;51.234;6.754;2023-04-01T00:06:13;98887.41;;;9.74;100.00
28004;BME280;15330;51.234;6.754;2023-04-01T00:08:39;98893.16;;;9.71;100.00
28004;BME280;15330;51.234;6.754;2023-04-01T00:11:05;98884.13;;;9.65;100.00
28004;BME280;15330;51.234;6.754;2023-04-01T00:13:30;98880.41;;;9.66;100.00
28004;BME280;15330;51.234;6.754;2023-04-01T00:15:56;98887.81;;;9.64;100.00
28004;BME280;15330;51.234;6.754;2023-04-01T00:18:22;98879.19;;;9.62;100.00
28004;BME280;15330;51.234;6.754;2023-04-01T00:20:49;98870.56;;;9.60;100.00
28004;BME280;15330;51.234;6.754;2023-04-01T00:23:16;98882.88;;;9.61;100.00
28004;BME280;15330;51.234;6.754;2023-04-01T00:25:42;98886.38;;;9.62;100.00
28004;BME280;15330;51.234;6.754;2023-04-01T00:28:08;98882.06;;;9.67;100.00
28004;BME280;15330;51.234;6.754;2023-04-01T00:30:35;98880.19;;;9.68;100.00
28004;BME280;15330;51.234;6.754;2023-04-01T00:33:01;98877.56;;;9.74;100.00
28004;BME280;15330;51.234;6.754;2023-04-01T00:35:27;98877.53;;;9.68;100.00
28004;BME280;15330;51.234;6.754;2023-04-01T00:37:52;98890.25;;;9.66;100.00
28004;BME280;15330;51.234;6.754;2023-04-01T00:40:33;98865.81;;;9.69;100.00
28004;BME280;15330;51.234;6.754;2023-04-01T00:42:58;98876.09;;;9.72;100.00
28004;BME280;15330;51.234;6.754;2023-04-01T00:47:54;98879.59;;;9.72;100.00
28004;BME280;15330;51.234;6.754;2023-04-01T00:50:22;98886.97;;;9.77;100.00
28004;BME280;15330;51.234;6.754;2023-04-01T00:52:50;98857.81;;;9.69;100.00
28004;BME280;15330;51.234;6.754;2023-04-01T00:55:16;98882.25;;;9.66;100.00
28004;BME280;15330;51.234;6.754;2023-04-01T00:57:45;98873.44;;;9.72;100.00
28004;BME280;15330;51.234;6.754;2023-04-01T01:00:12;98859.88;;;9.73;100.00
28004;BME280;15330;51.234;6.754;2023-04-01T01:02:41;98866.88;;;9.74;100.00
28004;BME280;15330;51.234;6.754;2023-04-01T01:05:12;98855.56;;;9.72;100.00
28004;BME280;15330;51.234;6.754;2023-04-01T01:10:31;98850.84;;;9.81;100.00
28004;BME280;15330;51.234;6.754;2023-04-01T01:15:46;98854.75;;;9.72;100.00
28004;BME280;15330;51.234;6.754;2023-04-01T01:18:21;98862.34;;;9.75;100.00
28004;BME280;15330;51.234;6.754;2023-04-01T01:37:43;98858.22;;;9.66;100.00
28004;BME280;15330;51.234;6.754;2023-04-01T01:40:11;98850.84;;;9.61;100.00
28004;BME280;15330;51.234;6.754;2023-04-01T01:42:40;98856.38;;;9.60;100.00
28004;BME280;15330;51.234;6.754;2023-04-01T01:45:10;98849.19;;;9.60;100.00
28004;BME280;15330;51.234;6.754;2023-04-01T01:47:37;98859.88;;;9.60;100.00
28004;BME280;15330;51.234;6.754;2023-04-01T01:50:05;98863.97;;;9.49;100.00
28004;BME280;15330;51.234;6.754;2023-04-01T01:52:31;98856.19;;;9.54;100.00
28004;BME280;15330;51.234;6.754;2023-04-01T01:54:57;98858.25;;;9.52;100.00
28004;BME280;15330;51.234;6.754;2023-04-01T01:57:26;98859.69;;;9.55;100.00
28004;BME280;15330;51.234;6.754;2023-04-01T01:59:59;98852.28;;;9.50;100.00
28004;BME280;15330;51.234;6.754;2023-04-01T02:02:27;98852.91;;;9.52;100.00
28004;BME280;15330;51.234;6.754;2023-04-01T02:04:56;98859.66;;;9.48;100.00
28004;BME280;15330;51.234;6.754;2023-04-01T02:07:28;98875.28;;;9.51;100.00
28004;BME280;15330;51.234;6.754;2023-04-01T02:09:56;98853.69;;;9.46;100.00
28004;BME280;15330;51.234;6.754;2023-04-01T02:12:23;98861.09;;;9.44;100.00
28004;BME280;15330;51.234;6.754;2023-04-01T02:14:53;98851.69;;;9.55;100.00
28004;BME280;15330;51.234;6.754;2023-04-01T02:17:22;98861.69;;;9.46;100.00
28004;BME280;15330;51.234;6.754;2023-04-01T02:19:54;98852.06;;;9.45;100.00
28004;BME280;15330;51.234;6.754;2023-04-01T02:22:27;98848.16;;;9.41;100.00
28004;BME280;15330;51.234;6.754;2023-04-01T02:24:57;98853.69;;;9.46;100.00
28004;BME280;15330;51.234;6.754;2023-04-01T02:27:24;98846.09;;;9.37;100.00
28004;BME280;15330;51.234;6.754;2023-04-01T02:29:51;98846.53;;;9.40;100.00
28004;BME280;15330;51.234;6.754;2023-04-01T02:32:17;98855.53;;;9.39;100.00
28004;BME280;15330;51.234;6.754;2023-04-01T02:34:45;98853.47;;;9.35;100.00
28004;BME280;15330;51.234;6.754;2023-04-01T02:37:12;98853.69;;;9.33;100.00
28004;BME280;15330;51.234;6.754;2023-04-01T02:39:38;98858.59;;;9.36;100.00
28004;BME280;15330;51.234;6.754;2023-04-01T02:42:03;98854.28;;;9.35;100.00
28004;BME280;15330;51.234;6.754;2023-04-01T02:44:29;98860.47;;;9.29;100.00
28004;BME280;15330;51.234;6.754;2023-04-01T02:46:54;98862.50;;;9.27;100.00
28004;BME280;15330;51.234;6.754;2023-04-01T02:49:20;98865.38;;;9.26;100.00
28004;BME280;15330;51.234;6.754;2023-04-01T02:51:45;98862.09;;;9.30;100.00
28004;BME280;15330;51.234;6.754;2023-04-01T02:54:10;98864.34;;;9.27;100.00
28004;BME280;15330;51.234;6.754;2023-04-01T02:56:36;98869.47;;;9.28;100.00
28004;BME280;15330;51.234;6.754;2023-04-01T02:59:01;98867.84;;;9.27;100.00
28004;BME280;15330;51.234;6.754;2023-04-01T03:01:26;98874.41;;;9.31;100.00
28004;BME280;15330;51.234;6.754;2023-04-01T03:03:52;98879.56;;;9.33;100.00
28004;BME280;15330;51.234;6.754;2023-04-01T03:06:17;98866.63;;;9.30;100.00
28004;BME280;15330;51.234;6.754;2023-04-01T03:08:43;98883.06;;;9.33;100.00
28004;BME280;15330;51.234;6.754;2023-04-01T03:11:09;98878.34;;;9.42;100.00
28004;BME280;15330;51.234;6.754;2023-04-01T03:13:35;98880.81;;;9.43;100.00
28004;BME280;15330;51.234;6.754;2023-04-01T03:16:01;98876.06;;;9.39;100.00
28004;BME280;15330;51.234;6.754;2023-04-01T03:18:26;98880.81;;;9.43;100.00
28004;BME280;15330;51.234;6.754;2023-04-01T03:20:51;98893.09;;;9.38;100.00
28004;BME280;15330;51.234;6.754;2023-04-01T03:23:17;98889.59;;;9.37;100.00
28004;BME280;15330;51.234;6.754;2023-04-01T03:25:44;98890.22;;;9.33;100.00
28004;BME280;15330;51.234;6.754;2023-04-01T03:28:10;98885.09;;;9.38;100.00
28004;BME280;15330;51.234;6.754;2023-04-01T03:30:35;98886.94;;;9.37;100.00
28004;BME280;15330;51.234;6.754;2023-04-01T03:33:01;98889.41;;;9.32;100.00
28004;BME280;15330;51.234;6.754;2023-04-01T03:35:27;98897.59;;;9.31;100.00
28004;BME280;15330;51.234;6.754;2023-04-01T03:37:53;98905.00;;;9.35;100.00
28004;BME280;15330;51.234;6.754;2023-04-01T03:40:19;98889.41;;;9.39;100.00
28004;BME280;15330;51.234;6.754;2023-04-01T03:42:45;98890.63;;;9.36;100.00
28004;BME280;15330;51.234;6.754;2023-04-01T03:45:11;98899.06;;;9.33;100.00
28004;BME280;15330;51.234;6.754;2023-04-01T03:47:38;98895.97;;;9.30;100.00
28004;BME280;15330;51.234;6.754;2023-04-01T03:50:04;98892.69;;;9.34;100.00
28004;BME280;15330;51.234;6.754;2023-04-01T03:52:30;98892.06;;;9.39;100.00
28004;BME280;15330;51.234;6.754;2023-04-01T03:54:55;98895.38;;;9.41;100.00
28004;BME280;15330;51.234;6.754;2023-04-01T03:57:21;98893.94;;;9.38;100.00
28004;BME280;15330;51.234;6.754;2023-04-01T03:59:46;98899.88;;;9.40;100.00
28004;BME280;15330;51.234;6.754;2023-04-01T04:02:12;98899.66;;;9.35;100.00
28004;BME280;15330;51.234;6.754;2023-04-01T04:04:37;98909.31;;;9.36;100.00
28004;BME280;15330;51.234;6.754;2023-04-01T04:07:02;98899.06;;;9.33;100.00
28004;BME280;15330;51.234;6.754;2023-04-01T04:09:30;98901.94;;;9.32;100.00
28004;BME280;15330;51.234;6.754;2023-04-01T04:11:55;98907.88;;;9.40;100.00
28004;BME280;15330;51.234;6.754;2023-04-01T04:14:22;98907.28;;;9.45;100.00
28004;BME280;15330;51.234;6.754;2023-04-01T04:16:48;98898.88;;;9.41;100.00
28004;BME280;15330;51.234;6.754;2023-04-01T04:19:14;98912.59;;;9.38;100.00
28004;BME280;15330;51.234;6.754;2023-04-01T04:21:41;98900.47;;;9.36;100.00
28004;BME280;15330;51.234;6.754;2023-04-01T04:24:06;98908.09;;;9.45;100.00
28004;BME280;15330;51.234;6.754;2023-04-01T04:26:32;98905.41;;;9.39;100.00
28004;BME280;15330;51.234;6.754;2023-04-01T04:28:57;98903.97;;;9.36;100.00
28004;BME280;15330;51.234;6.754;2023-04-01T04:31:24;98911.38;;;9.41;100.00
28004;BME280;15330;51.234;6.754;2023-04-01T04:33:50;98910.53;;;9.27;100.00
28004;BME280;15330;51.234;6.754;2023-04-01T04:36:16;98909.31;;;9.30;100.00
28004;BME280;15330;51.234;6.754;2023-04-01T04:38:42;98913.63;;;9.31;100.00
28004;BME280;15330;51.234;6.754;2023-04-01T04:41:11;98919.78;;;9.31;100.00
28004;BME280;15330;51.234;6.754;2023-04-01T04:43:38;98914.44;;;9.31;100.00
28004;BME280;15330;51.234;6.754;2023-04-01T04:46:10;98918.13;;;9.30;100.00
28004;BME280;15330;51.234;6.754;2023-04-01T04:48:36;98916.72;;;9.34;100.00
28004;BME280;15330;51.234;6.754;2023-04-01T04:51:02;98918.38;;;9.42;100.00
28004;BME280;15330;51.234;6.754;2023-04-01T04:53:28;98922.06;;;9.34;100.00
28004;BME280;15330;51.234;6.754;2023-04-01T04:55:53;98923.91;;;9.34;100.00
28004;BME280;15330;51.234;6.754;2023-04-01T04:58:19;98932.31;;;9.37;100.00
28004;BME280;15330;51.234;6.754;2023-04-01T05:00:46;98925.75;;;9.46;100.00
28004;BME280;15330;51.234;6.754;2023-04-01T05:03:12;98928.63;;;9.38;100.00
28004;BME280;15330;51.234;6.754;2023-04-01T05:05:38;98932.50;;;9.36;100.00
28004;BME280;15330;51.234;6.754;2023-04-01T05:08:04;98939.47;;;9.37;100.00
28004;BME280;15330;51.234;6.754;2023-04-01T05:10:29;98933.53;;;9.35;100.00
28004;BME280;15330;51.234;6.754;2023-04-01T05:12:57;98944.63;;;9.32;100.00
28004;BME280;15330;51.234;6.754;2023-04-01T05:15:22;98942.97;;;9.37;100.00
28004;BME280;15330;51.234;6.754;2023-04-01T05:17:47;98948.31;;;9.37;100.00
28004;BME280;15330;51.234;6.754;2023-04-01T05:20:13;98936.19;;;9.28;100.00
28004;BME280;15330;51.234;6.754;2023-04-01T05:22:42;98943.78;;;9.31;100.00
28004;BME280;15330;51.234;6.754;2023-04-01T05:25:08;98945.59;;;9.24;100.00
28004;BME280;15330;51.234;6.754;2023-04-01T05:27:34;98942.34;;;9.29;100.00
28004;BME280;15330;51.234;6.754;2023-04-01T05:30:00;98950.59;;;9.34;100.00
28004;BME280;15330;51.234;6.754;2023-04-01T05:32:25;98950.78;;;9.32;100.00
28004;BME280;15330;51.234;6.754;2023-04-01T05:34:52;98953.84;;;9.29;100.00
28004;BME280;15330;51.234;6.754;2023-04-01T05:37:18;98947.09;;;9.33;100.00
28004;BME280;15330;51.234;6.754;2023-04-01T05:39:43;98946.47;;;9.38;100.00
28004;BME280;15330;51.234;6.754;2023-04-01T05:42:09;98957.97;;;9.32;100.00
28004;BME280;15330;51.234;6.754;2023-04-01T05:44:35;98957.31;;;9.23;100.00
28004;BME280;15330;51.234;6.754;2023-04-01T05:47:00;98959.81;;;9.31;100.00
28004;BME280;15330;51.234;6.754;2023-04-01T05:49:26;98962.44;;;9.25;100.00
28004;BME280;15330;51.234;6.754;2023-04-01T05:51:51;98969.25;;;9.34;100.00
28004;BME280;15330;51.234;6.754;2023-04-01T05:54:17;98969.56;;;9.72;100.00
28004;BME280;15330;51.234;6.754;2023-04-01T05:56:42;98963.16;;;9.60;100.00
28004;BME280;15330;51.234;6.754;2023-04-01T05:59:10;98968.84;;;9.37;100.00
28004;BME280;15330;51.234;6.754;2023-04-01T06:01:35;98960.53;;;9.73;100.00
28004;BME280;15330;51.234;6.754;2023-04-01T06:04:01;98970.72;;;9.56;100.00
28004;BME280;15330;51.234;6.754;2023-04-01T06:06:28;98969.91;;;9.55;100.00
28004;BME280;15330;51.234;6.754;2023-04-01T06:08:56;98968.06;;;9.49;100.00
28004;BME280;15330;51.234;6.754;2023-04-01T06:14:31;98974.81;;;9.45;100.00
28004;BME280;15330;51.234;6.754;2023-04-01T06:20:00;98989.78;;;9.40;100.00
28004;BME280;15330;51.234;6.754;2023-04-01T06:28:34;98979.13;;;9.46;100.00
28004;BME280;15330;51.234;6.754;2023-04-01T06:42:22;98991.25;;;9.49;100.00
28004;BME280;15330;51.234;6.754;2023-04-01T06:56:20;98995.13;;;9.40;100.00
28004;BME280;15330;51.234;6.754;2023-04-01T07:01:33;99006.00;;;9.38;100.00
28004;BME280;15330;51.234;6.754;2023-04-01T07:04:06;99005.81;;;9.40;100.00
28004;BME280;15330;51.234;6.754;2023-04-01T07:06:39;99007.25;;;9.42;100.00
28004;BME280;15330;51.234;6.754;2023-04-01T07:09:10;99007.44;;;9.34;100.00
28004;BME280;15330;51.234;6.754;2023-04-01T07:11:38;99017.88;;;9.36;100.00
28004;BME280;15330;51.234;6.754;2023-04-01T07:17:01;99010.13;;;9.47;100.00
28004;BME280;15330;51.234;6.754;2023-04-01T07:19:39;99013.63;;;9.41;100.00
28004;BME280;15330;51.234;6.754;2023-04-01T07:24:41;99023.09;;;9.57;100.00
28004;BME280;15330;51.234;6.754;2023-04-01T07:27:10;99026.84;;;9.63;100.00
28004;BME280;15330;51.234;6.754;2023-04-01T07:29:36;99035.28;;;9.79;100.00
28004;BME280;15330;51.234;6.754;2023-04-01T07:37:42;99038.28;;;9.56;100.00
28004;BME280;15330;51.234;6.754;2023-04-01T07:40:36;99038.09;;;9.51;100.00
28004;BME280;15330;51.234;6.754;2023-04-01T07:45:51;99052.22;;;9.45;100.00
28004;BME280;15330;51.234;6.754;2023-04-01T07:53:54;99064.78;;;9.58;100.00
28004;BME280;15330;51.234;6.754;2023-04-01T08:04:33;99078.38;;;9.63;100.00
28004;BME280;15330;51.234;6.754;2023-04-01T08:07:19;99076.66;;;9.49;100.00
28004;BME280;15330;51.234;6.754;2023-04-01T08:18:16;99097.09;;;9.76;100.00
28004;BME280;15330;51.234;6.754;2023-04-01T08:20:57;99103.13;;;9.85;100.00
28004;BME280;15330;51.234;6.754;2023-04-01T08:23:32;99106.09;;;9.62;100.00
28004;BME280;15330;51.234;6.754;2023-04-01T08:26:06;99104.00;;;9.57;100.00
28004;BME280;15330;51.234;6.754;2023-04-01T08:28:51;99102.59;;;9.62;100.00
28004;BME280;15330;51.234;6.754;2023-04-01T08:34:42;99107.56;;;9.71;100.00
28004;BME280;15330;51.234;6.754;2023-04-01T08:37:15;99116.22;;;9.73;100.00
28004;BME280;15330;51.234;6.754;2023-04-01T08:39:51;99114.16;;;9.75;100.00
28004;BME280;15330;51.234;6.754;2023-04-01T08:45:56;99117.63;;;9.69;100.00
28004;BME280;15330;51.234;6.754;2023-04-01T08:56:18;99133.25;;;9.79;100.00
28004;BME280;15330;51.234;6.754;2023-04-01T09:15:18;99153.44;;;9.88;100.00
28004;BME280;15330;51.234;6.754;2023-04-01T09:18:20;99162.06;;;9.83;100.00
28004;BME280;15330;51.234;6.754;2023-04-01T09:24:37;99170.91;;;9.90;100.00
28004;BME280;15330;51.234;6.754;2023-04-01T09:27:02;99167.66;;;9.95;100.00
28004;BME280;15330;51.234;6.754;2023-04-01T09:46:12;99193.75;;;9.93;100.00
28004;BME280;15330;51.234;6.754;2023-04-01T09:49:23;99192.22;;;9.77;100.00
28004;BME280;15330;51.234;6.754;2023-04-01T09:51:39;99197.16;;;9.80;100.00
28004;BME280;15330;51.234;6.754;2023-04-01T10:02:19;99204.88;;;9.97;100.00
28004;BME280;15330;51.234;6.754;2023-04-01T10:25:25;99227.53;;;10.14;100.00
28004;BME280;15330;51.234;6.754;2023-04-01T10:55:35;99237.00;;;10.16;100.00
28004;BME280;15330;51.234;6.754;2023-04-01T11:21:48;99270.47;;;10.06;100.00
28004;BME280;15330;51.234;6.754;2023-04-01T11:35:43;99285.97;;;10.23;100.00
28004;BME280;15330;51.234;6.754;2023-04-01T11:43:41;99294.47;;;10.40;100.00
28004;BME280;15330;51.234;6.754;2023-04-01T11:46:14;99295.66;;;10.31;100.00
28004;BME280;15330;51.234;6.754;2023-04-01T11:48:48;99302.09;;;10.43;100.00
28004;BME280;15330;51.234;6.754;2023-04-01T11:51:43;99305.59;;;10.44;100.00
28004;BME280;15330;51.234;6.754;2023-04-01T11:57:25;99319.56;;;10.39;100.00
28004;BME280;15330;51.234;6.754;2023-04-01T12:08:04;99320.38;;;10.33;100.00
28004;BME280;15330;51.234;6.754;2023-04-01T12:13:35;99333.16;;;10.38;100.00
28004;BME280;15330;51.234;6.754;2023-04-01T12:18:56;99335.56;;;10.33;100.00
28004;BME280;15330;51.234;6.754;2023-04-01T12:21:45;99342.47;;;10.55;100.00
28004;BME280;15330;51.234;6.754;2023-04-01T12:41:08;99365.69;;;10.48;100.00
28004;BME280;15330;51.234;6.754;2023-04-01T12:49:16;99382.41;;;10.63;100.00
28004;BME280;15330;51.234;6.754;2023-04-01T12:58:00;99379.25;;;11.00;100.00
28004;BME280;15330;51.234;6.754;2023-04-01T13:00:55;99386.94;;;11.17;100.00
28004;BME280;15330;51.234;6.754;2023-04-01T13:22:23;99398.44;;;10.63;100.00
28004;BME280;15330;51.234;6.754;2023-04-01T13:39:01;99411.72;;;10.78;100.00
28004;BME280;15330;51.234;6.754;2023-04-01T13:53:01;99424.84;;;10.73;100.00
28004;BME280;15330;51.234;6.754;2023-04-01T13:55:21;99427.69;;;10.71;100.00
28004;BME280;15330;51.234;6.754;2023-04-01T14:01:06;99440.13;;;10.51;100.00
28004;BME280;15330;51.234;6.754;2023-04-01T14:12:15;99450.19;;;10.83;100.00
28004;BME280;15330;51.234;6.754;2023-04-01T14:17:59;99454.13;;;10.87;100.00
28004;BME280;15330;51.234;6.754;2023-04-01T14:20:39;99457.63;;;10.88;100.00
28004;BME280;15330;51.234;6.754;2023-04-01T14:28:40;99458.47;;;10.88;100.00
28004;BME280;15330;51.234;6.754;2023-04-01T14:34:44;99464.47;;;10.97;100.00
28004;BME280;15330;51.234;6.754;2023-04-01T14:48:03;99472.75;;;11.09;100.00
28004;BME280;15330;51.234;6.754;2023-04-01T14:50:46;99479.97;;;11.08;100.00
28004;BME280;15330;51.234;6.754;2023-04-01T14:55:53;99491.78;;;10.86;100.00
28004;BME280;15330;51.234;6.754;2023-04-01T14:58:22;99492.63;;;10.86;100.00
28004;BME280;15330;51.234;6.754;2023-04-01T15:03:48;99502.56;;;10.64;100.00
28004;BME280;15330;51.234;6.754;2023-04-01T15:09:28;99512.81;;;10.61;100.00
28004;BME280;15330;51.234;6.754;2023-04-01T15:30:30;99529.09;;;10.66;100.00
28004;BME280;15330;51.234;6.754;2023-04-01T15:33:17;99533.25;;;10.69;100.00
28004;BME280;15330;51.234;6.754;2023-04-01T15:35:57;99533.28;;;10.75;100.00
28004;BME280;15330;51.234;6.754;2023-04-01T15:38:34;99542.84;;;10.63;100.00
28004;BME280;15330;51.234;6.754;2023-04-01T15:43:50;99539.19;;;10.43;100.00
28004;BME280;15330;51.234;6.754;2023-04-01T15:46:43;99538.81;;;10.46;100.00
28004;BME280;15330;51.234;6.754;2023-04-01T16:20:18;99588.72;;;10.17;100.00
28004;BME280;15330;51.234;6.754;2023-04-01T16:22:53;99577.09;;;10.25;100.00
28004;BME280;15330;51.234;6.754;2023-04-01T16:25:40;99582.81;;;10.22;100.00
28004;BME280;15330;51.234;6.754;2023-04-01T16:28:34;99587.38;;;10.28;100.00
28004;BME280;15330;51.234;6.754;2023-04-01T16:41:54;99604.47;;;10.12;100.00
28004;BME280;15330;51.234;6.754;2023-04-01T16:44:26;99608.63;;;10.15;100.00
28004;BME280;15330;51.234;6.754;2023-04-01T16:46:55;99618.94;;;10.18;100.00
28004;BME280;15330;51.234;6.754;2023-04-01T16:49:40;99611.66;;;10.12;100.00
28004;BME280;15330;51.234;6.754;2023-04-01T16:54:56;99627.13;;;10.16;100.00
28004;BME280;15330;51.234;6.754;2023-04-01T16:57:35;99628.16;;;10.15;100.00
28004;BME280;15330;51.234;6.754;2023-04-01T17:00:26;99629.91;;;10.08;100.00
28004;BME280;15330;51.234;6.754;2023-04-01T17:03:02;99636.06;;;10.09;100.00
28004;BME280;15330;51.234;6.754;2023-04-01T17:05:40;99635.91;;;10.10;100.00
28004;BME280;15330;51.234;6.754;2023-04-01T17:08:28;99643.72;;;10.12;100.00
28004;BME280;15330;51.234;6.754;2023-04-01T17:14:34;99653.88;;;10.16;100.00
28004;BME280;15330;51.234;6.754;2023-04-01T17:20:08;99666.78;;;9.98;100.00
28004;BME280;15330;51.234;6.754;2023-04-01T17:23:14;99663.28;;;9.98;100.00
28004;BME280;15330;51.234;6.754;2023-04-01T17:25:48;99668.44;;;9.99;100.00
28004;BME280;15330;51.234;6.754;2023-04-01T17:28:27;99672.22;;;10.05;100.00
28004;BME280;15330;51.234;6.754;2023-04-01T17:36:43;99687.78;;;9.86;100.00
28004;BME280;15330;51.234;6.754;2023-04-01T17:39:54;99693.41;;;10.06;100.00
28004;BME280;15330;51.234;6.754;2023-04-01T17:42:20;99689.38;;;9.96;100.00
28004;BME280;15330;51.234;6.754;2023-04-01T17:45:11;99695.09;;;9.92;100.00
28004;BME280;15330;51.234;6.754;2023-04-01T17:48:22;99705.00;;;9.99;100.00
28004;BME280;15330;51.234;6.754;2023-04-01T17:50:53;99703.63;;;9.88;100.00
28004;BME280;15330;51.234;6.754;2023-04-01T17:59:36;99713.59;;;9.79;100.00
28004;BME280;15330;51.234;6.754;2023-04-01T18:07:49;99735.25;;;9.84;100.00
28004;BME280;15330;51.234;6.754;2023-04-01T18:10:25;99734.06;;;9.72;100.00
28004;BME280;15330;51.234;6.754;2023-04-01T18:18:29;99747.59;;;9.85;100.00
28004;BME280;15330;51.234;6.754;2023-04-01T18:21:17;99747.38;;;9.87;100.00
28004;BME280;15330;51.234;6.754;2023-04-01T18:23:59;99750.63;;;9.82;100.00
28004;BME280;15330;51.234;6.754;2023-04-01T18:26:32;99753.47;;;9.81;100.00
28004;BME280;15330;51.234;6.754;2023-04-01T18:29:17;99762.84;;;9.77;100.00
28004;BME280;15330;51.234;6.754;2023-04-01T18:31:51;99771.09;;;9.75;100.00
28004;BME280;15330;51.234;6.754;2023-04-01T18:37:25;99782.66;;;9.68;100.00
28004;BME280;15330;51.234;6.754;2023-04-01T18:40:17;99789.50;;;9.85;100.00
28004;BME280;15330;51.234;6.754;2023-04-01T18:45:48;99794.72;;;9.78;100.00
28004;BME280;15330;51.234;6.754;2023-04-01T18:51:36;99794.34;;;9.67;100.00
28004;BME280;15330;51.234;6.754;2023-04-01T18:56:43;99801.00;;;9.71;100.00
28004;BME280;15330;51.234;6.754;2023-04-01T18:59:25;99800.81;;;9.72;100.00
28004;BME280;15330;51.234;6.754;2023-04-01T19:02:01;99810.84;;;9.70;100.00
28004;BME280;15330;51.234;6.754;2023-04-01T19:04:42;99809.34;;;9.68;100.00
28004;BME280;15330;51.234;6.754;2023-04-01T19:10:01;99809.31;;;9.76;100.00
28004;BME280;15330;51.234;6.754;2023-04-01T19:12:52;99818.59;;;9.80;100.00
28004;BME280;15330;51.234;6.754;2023-04-01T19:18:25;99821.88;;;9.67;100.00
28004;BME280;15330;51.234;6.754;2023-04-01T19:20:57;99820.88;;;9.68;100.00
28004;BME280;15330;51.234;6.754;2023-04-01T19:26:10;99833.97;;;9.78;100.00
28004;BME280;15330;51.234;6.754;2023-04-01T19:39:45;99832.56;;;9.67;100.00
28004;BME280;15330;51.234;6.754;2023-04-01T19:45:38;99840.75;;;9.66;100.00
28004;BME280;15330;51.234;6.754;2023-04-01T19:54:04;99849.78;;;9.65;100.00
28004;BME280;15330;51.234;6.754;2023-04-01T19:59:34;99865.00;;;9.64;100.00
28004;BME280;15330;51.234;6.754;2023-04-01T20:04:51;99862.25;;;9.49;100.00
28004;BME280;15330;51.234;6.754;2023-04-01T20:07:28;99864.41;;;9.54;100.00
28004;BME280;15330;51.234;6.754;2023-04-01T20:10:14;99875.53;;;9.57;100.00
28004;BME280;15330;51.234;6.754;2023-04-01T20:18:11;99876.84;;;9.62;100.00
28004;BME280;15330;51.234;6.754;2023-04-01T20:20:39;99883.63;;;9.49;100.00
28004;BME280;15330;51.234;6.754;2023-04-01T20:23:33;99876.97;;;9.45;100.00
28004;BME280;15330;51.234;6.754;2023-04-01T20:26:07;99885.63;;;9.47;100.00
28004;BME280;15330;51.234;6.754;2023-04-01T20:28:48;99897.31;;;9.46;
28004;BME280;15330;51.234;6.754;2023-04-01T20:39:52;99903.38;;;9.63;100.00
28004;BME280;15330;51.234;6.754;2023-04-01T20:45:38;99912.25;;;9.55;100.00
28004;BME280;15330;51.234;6.754;2023-04-01T20:50:58;99928.50;;;9.46;100.00
28004;BME280;15330;51.234;6.754;2023-04-01T21:11:11;99965.69;;;9.25;100.00
28004;BME280;15330;51.234;6.754;2023-04-01T21:16:41;99976.56;;;9.15;100.00
28004;BME280;15330;51.234;6.754;2023-04-01T21:19:15;99975.00;;;8.98;100.00
28004;BME280;15330;51.234;6.754;2023-04-01T21:24:43;99990.28;;;9.04;100.00
28004;BME280;15330;51.234;6.754;2023-04-01T21:27:31;100000.34;;;8.94;100.00
28004;BME280;15330;51.234;6.754;2023-04-01T21:41:18;100032.00;;;8.97;100.00
28004;BME280;15330;51.234;6.754;2023-04-01T21:49:21;100045.75;;;8.69;100.00
28004;BME280;15330;51.234;6.754;2023-04-01T22:02:47;100073.75;;;8.41;100.00
28004;BME280;15330;51.234;6.754;2023-04-01T22:10:34;100096.56;;;8.19;100.00
28004;BME280;15330;51.234;6.754;2023-04-01T22:16:05;100101.53;;;8.22;100.00
28004;BME280;15330;51.234;6.754;2023-04-01T22:26:53;100112.81;;;8.00;100.00
28004;BME280;15330;51.234;6.754;2023-04-01T22:30:11;100123.31;;;8.01;100.00
28004;BME280;15330;51.234;6.754;2023-04-01T22:32:17;100120.34;;;7.96;100.00
28004;BME280;15330;51.234;6.754;2023-04-01T22:34:55;100133.50;;;7.98;100.00
28004;BME280;15330;51.234;6.754;2023-04-01T22:42:42;100138.75;;;7.82;100.00
28004;BME280;15330;51.234;6.754;2023-04-01T22:48:14;100158.91;;;7.92;100.00
28004;BME280;15330;51.234;6.754;2023-04-01T22:56:21;100166.53;;;7.79;100.00
28004;BME280;15330;51.234;6.754;2023-04-01T22:59:02;100175.88;;;7.83;100.00
28004;BME280;15330;51.234;6.754;2023-04-01T23:01:33;100170.81;;;7.64;100.00
28004;BME280;15330;51.234;6.754;2023-04-01T23:04:03;100183.13;;;7.65;100.00
28004;BME280;15330;51.234;6.754;2023-04-01T23:06:38;100185.41;;;7.60;100.00
28004;BME280;15330;51.234;6.754;2023-04-01T23:09:25;100198.00;;;7.50;100.00
28004;BME280;15330;51.234;6.754;2023-04-01T23:12:01;100190.56;;;7.53;100.00
28004;BME280;15330;51.234;6.754;2023-04-01T23:14:35;100202.94;;;7.36;100.00
28004;BME280;15330;51.234;6.754;2023-04-01T23:19:49;100219.69;;;7.55;100.00
28004;BME280;15330;51.234;6.754;2023-04-01T23:30:48;100247.66;;;7.33;100.00
28004;BME280;15330;51.234;6.754;2023-04-01T23:36:01;100253.97;;;7.32;100.00
28004;BME280;15330;51.234;6.754;2023-04-01T23:38:37;100260.25;;;7.31;100.00
28004;BME280;15330;51.234;6.754;2023-04-01T23:41:04;100267.78;;;7.35;100.00
28004;BME280;15330;51.234;6.754;2023-04-01T23:43:33;100278.75;;;7.32;100.00
28004;BME280;15330;51.234;6.754;2023-04-01T23:46:02;100273.56;;;7.31;100.00
28004;BME280;15330;51.234;6.754;2023-04-01T23:48:35;100276.53;;;7.28;100.00
28004;BME280;15330;51.234;6.754;2023-04-01T23:51:02;100293.56;;;7.17;100.00
28004;BME280;15330;51.234;6.754;2023-04-01T23:53:33;100300.31;;;7.29;100.00
28004;BME280;15330;51.234;6.754;2023-04-01T23:56:02;100292.59;;;7.18;100.00
28004;BME280;15330;51.234;6.754;2023-04-01T23:58:42;100311.06;;;7.02;100.00
